Time;durP1;ratioP1;P1;durP2;ratioP2;P2;SDS_P1;SDS_P2;PMS_P1;PMS_P2;Temp;Humidity;BMP_temperature;BMP_pressure;BME280_temperature;BME280_humidity;BME280_pressure;Samples;Min_cycle;Max_cycle;Signal;HPM_P1;HPM_P2
2023/01/18 00:00:27;;;;;;;377.33;170.82;;;;;;;;;;1040503;28;20489;-74
2023/01/18 00:01:02;;;;;;;366.75;162.18;;;;;;;;;;1038182;28;20022;-74
2023/01/18 00:01:35;;;;;;;346.35;167.82;;;;;;;;;;1040669;28;20071;-74
2023/01/18 00:02:06;;;;;;;343.73;157.55;;;;;;;;;;1041542;28;20070;-74
2023/01/18 00:02:36;;;;;;;341.52;158.75;;;;;;;;;;1042395;28;20017;-74
2023/01/18 00:03:11;;;;;;;372.30;159.73;;;;;;;;;;1041763;28;20488;-74
2023/01/18 00:03:42;;;;;;;378.23;166.80;;;;;;;;;;1041361;28;20113;-73
2023/01/18 00:04:12;;;;;;;351.67;163.75;;;;;;;;;;1041192;28;20470;-74
2023/01/18 00:04:43;;;;;;;388.63;167.75;;;;;;;;;;1041796;28;20033;-74
2023/01/18 00:05:13;;;;;;;386.80;167.98;;;;;;;;;;1042111;28;20033;-74
2023/01/18 00:05:44;;;;;;;383.25;168.50;;;;;;;;;;1041497;28;20056;-74
2023/01/18 00:06:16;;;;;;;375.42;168.18;;;;;;;;;;1041294;28;20060;-74
2023/01/18 00:06:46;;;;;;;373.70;164.90;;;;;;;;;;1041340;28;20111;-74
2023/01/18 00:07:17;;;;;;;363.15;161.70;;;;;;;;;;1041105;28;20389;-74
2023/01/18 00:07:48;;;;;;;366.65;169.43;;;;;;;;;;1041779;28;20025;-74
2023/01/18 00:08:19;;;;;;;369.05;164.05;;;;;;;;;;1041747;28;20077;-74
2023/01/18 00:08:52;;;;;;;383.52;170.68;;;;;;;;;;1041627;28;20017;-74
2023/01/18 00:09:23;;;;;;;361.02;164.70;;;;;;;;;;1040782;28;20121;-74
2023/01/18 00:09:55;;;;;;;367.85;166.43;;;;;;;;;;1038994;28;20028;-74
2023/01/18 00:10:26;;;;;;;357.38;158.55;;;;;;;;;;1041529;28;20196;-74
2023/01/18 00:11:14;;;;;;;368.10;169.55;;;;;;;;;;1041221;28;20040;-74
2023/01/18 00:11:46;;;;;;;363.25;169.73;;;;;;;;;;1041786;28;20028;-74
2023/01/18 00:12:16;;;;;;;367.15;163.35;;;;;;;;;;1041571;28;20413;-74
2023/01/18 00:12:47;;;;;;;334.77;157.43;;;;;;;;;;1041941;28;20013;-74
2023/01/18 00:13:18;;;;;;;359.20;159.68;;;;;;;;;;1041657;28;20124;-74
2023/01/18 00:13:48;;;;;;;384.83;163.07;;;;;;;;;;1041745;28;20702;-74
2023/01/18 00:14:19;;;;;;;356.60;166.18;;;;;;;;;;1041869;28;20036;-73
2023/01/18 00:14:49;;;;;;;363.90;169.82;;;;;;;;;;1041873;28;20370;-74
2023/01/18 00:15:20;;;;;;;365.42;157.77;;;;;;;;;;1040378;28;20552;-73
2023/01/18 00:15:50;;;;;;;358.52;159.45;;;;;;;;;;1041671;28;20051;-73
2023/01/18 00:16:21;;;;;;;368.70;163.23;;;;;;;;;;1041670;28;20029;-73
2023/01/18 00:16:52;;;;;;;331.70;159.18;;;;;;;;;;1040076;28;20436;-73
2023/01/18 00:17:22;;;;;;;372.73;166.30;;;;;;;;;;1041312;28;20079;-74
2023/01/18 00:17:53;;;;;;;370.10;162.10;;;;;;;;;;1041145;28;20017;-74
2023/01/18 00:18:23;;;;;;;362.98;164.43;;;;;;;;;;1041881;28;20032;-74
2023/01/18 00:18:55;;;;;;;375.63;165.70;;;;;;;;;;1041789;28;20459;-74
2023/01/18 00:19:26;;;;;;;365.48;164.48;;;;;;;;;;1041495;28;20030;-74
2023/01/18 00:19:56;;;;;;;360.33;156.23;;;;;;;;;;1041813;28;20108;-74
2023/01/18 00:20:28;;;;;;;377.13;162.00;;;;;;;;;;1041526;28;20024;-74
2023/01/18 00:20:59;;;;;;;342.08;154.07;;;;;;;;;;1041825;28;20029;-74
2023/01/18 00:21:29;;;;;;;369.77;158.48;;;;;;;;;;1040530;28;20049;-74
2023/01/18 00:22:00;;;;;;;345.05;161.95;;;;;;;;;;1042027;28;20074;-74
2023/01/18 00:22:30;;;;;;;373.45;162.05;;;;;;;;;;1040694;28;20025;-73
2023/01/18 00:23:01;;;;;;;358.95;152.77;;;;;;;;;;1041238;28;20017;-73
2023/01/18 00:23:32;;;;;;;352.05;160.82;;;;;;;;;;1041527;28;20032;-74
2023/01/18 00:24:02;;;;;;;361.52;159.10;;;;;;;;;;1041027;28;20032;-73
2023/01/18 00:24:33;;;;;;;363.23;156.68;;;;;;;;;;1041637;28;20032;-73
2023/01/18 00:25:03;;;;;;;362.05;160.60;;;;;;;;;;1039803;28;20374;-73
2023/01/18 00:25:34;;;;;;;329.08;149.50;;;;;;;;;;1039666;28;20032;-73
2023/01/18 00:26:06;;;;;;;355.88;156.95;;;;;;;;;;1037360;28;20393;-73
2023/01/18 00:26:36;;;;;;;371.00;157.88;;;;;;;;;;1035159;28;20029;-73
2023/01/18 00:27:10;;;;;;;364.70;162.70;;;;;;;;;;1040664;28;20025;-74
2023/01/18 00:27:44;;;;;;;338.63;156.68;;;;;;;;;;1040975;28;20063;-74
2023/01/18 00:28:14;;;;;;;353.95;158.05;;;;;;;;;;1041690;28;20017;-74
2023/01/18 00:28:45;;;;;;;353.42;166.05;;;;;;;;;;1041299;28;20013;-74
2023/01/18 00:29:15;;;;;;;351.33;159.07;;;;;;;;;;1041448;28;20029;-74
2023/01/18 00:29:46;;;;;;;361.23;160.45;;;;;;;;;;1040677;28;20408;-74
2023/01/18 00:30:17;;;;;;;371.58;161.50;;;;;;;;;;1041301;28;20072;-74
2023/01/18 00:30:48;;;;;;;335.77;154.63;;;;;;;;;;1041677;28;20432;-74
2023/01/18 00:31:19;;;;;;;339.42;157.45;;;;;;;;;;1040093;28;20103;-74
2023/01/18 00:31:50;;;;;;;357.85;161.10;;;;;;;;;;1041523;28;20024;-74
2023/01/18 00:32:20;;;;;;;370.30;152.00;;;;;;;;;;1042622;28;20496;-74
2023/01/18 00:32:57;;;;;;;346.85;165.18;;;;;;;;;;1037597;28;20068;-74
2023/01/18 00:33:28;;;;;;;356.83;165.20;;;;;;;;;;1041414;28;20528;-74
2023/01/18 00:33:58;;;;;;;349.92;155.10;;;;;;;;;;1040584;28;20048;-74
2023/01/18 00:34:29;;;;;;;360.60;166.50;;;;;;;;;;1039800;28;20032;-74
2023/01/18 00:34:59;;;;;;;350.20;155.43;;;;;;;;;;1040441;28;20016;-74
2023/01/18 00:35:30;;;;;;;351.65;159.30;;;;;;;;;;1041137;28;20056;-74
2023/01/18 00:36:02;;;;;;;364.08;167.10;;;;;;;;;;1041753;28;20033;-74
2023/01/18 00:36:33;;;;;;;424.55;176.02;;;;;;;;;;1041411;28;20052;-74
2023/01/18 00:37:03;;;;;;;404.65;171.18;;;;;;;;;;1040321;28;20576;-74
2023/01/18 00:37:35;;;;;;;361.88;162.48;;;;;;;;;;1041258;28;20032;-74
2023/01/18 00:38:05;;;;;;;365.90;167.68;;;;;;;;;;1041164;28;20111;-74
2023/01/18 00:38:36;;;;;;;373.27;169.70;;;;;;;;;;1041588;28;20677;-74
2023/01/18 00:39:07;;;;;;;369.55;172.68;;;;;;;;;;1041579;28;20020;-74
2023/01/18 00:39:39;;;;;;;410.88;178.35;;;;;;;;;;1041002;28;20029;-74
2023/01/18 00:40:10;;;;;;;375.63;167.32;;;;;;;;;;1041937;28;20386;-74
2023/01/18 00:40:40;;;;;;;379.35;170.55;;;;;;;;;;1041869;28;20025;-74
2023/01/18 00:41:11;;;;;;;347.98;163.70;;;;;;;;;;1041140;28;20024;-74
2023/01/18 00:43:37;;;;;;;368.55;168.73;;;;;;;;;;1041144;28;20017;-74
2023/01/18 00:43:39;;;;;;;360.30;167.65;;;;;;;;;;1041375;28;20036;-74
2023/01/18 00:44:10;;;;;;;368.13;168.43;;;;;;;;;;1042183;28;20041;-74
2023/01/18 00:44:40;;;;;;;366.77;168.68;;;;;;;;;;1041007;28;20021;-74
2023/01/18 00:45:11;;;;;;;363.90;166.02;;;;;;;;;;1041632;28;20028;-73
2023/01/18 00:45:41;;;;;;;373.98;171.85;;;;;;;;;;1041697;28;20359;-73
2023/01/18 00:46:16;;;;;;;385.77;175.30;;;;;;;;;;1042479;28;20087;-73
2023/01/18 00:46:48;;;;;;;384.42;175.38;;;;;;;;;;1041678;28;20017;-74
2023/01/18 00:47:19;;;;;;;380.40;176.32;;;;;;;;;;1041588;28;20033;-74
2023/01/18 00:47:49;;;;;;;365.25;157.80;;;;;;;;;;1041295;28;20029;-74
2023/01/18 00:48:20;;;;;;;383.60;168.63;;;;;;;;;;1041050;28;20116;-74
2023/01/18 00:48:51;;;;;;;366.40;166.05;;;;;;;;;;1041247;28;20021;-74
2023/01/18 00:49:21;;;;;;;356.35;160.30;;;;;;;;;;1039780;28;20116;-74
2023/01/18 00:49:52;;;;;;;381.42;163.43;;;;;;;;;;1041665;28;20444;-74
2023/01/18 00:50:23;;;;;;;365.83;161.07;;;;;;;;;;1041689;28;20025;-74
2023/01/18 00:50:53;;;;;;;375.55;161.05;;;;;;;;;;1041195;28;20127;-74
2023/01/18 00:51:24;;;;;;;364.05;162.20;;;;;;;;;;1041053;28;20025;-74
2023/01/18 00:51:54;;;;;;;355.45;157.75;;;;;;;;;;1041630;28;20025;-74
2023/01/18 00:52:25;;;;;;;383.25;158.18;;;;;;;;;;1041466;28;20041;-74
2023/01/18 00:52:58;;;;;;;356.35;159.32;;;;;;;;;;1041813;28;20021;-74
2023/01/18 00:53:29;;;;;;;351.55;152.40;;;;;;;;;;1041491;28;20021;-74
2023/01/18 00:53:59;;;;;;;366.70;158.00;;;;;;;;;;1041231;28;20017;-74
2023/01/18 00:54:30;;;;;;;337.58;154.07;;;;;;;;;;1041285;28;20100;-74
2023/01/18 00:55:04;;;;;;;372.45;161.57;;;;;;;;;;1041193;28;20452;-74
2023/01/18 00:55:34;;;;;;;366.80;156.55;;;;;;;;;;1040711;28;20032;-74
2023/01/18 00:56:06;;;;;;;334.73;154.02;;;;;;;;;;1041309;28;20029;-74
2023/01/18 00:56:36;;;;;;;310.13;143.52;;;;;;;;;;1041815;28;20033;-74
2023/01/18 00:57:07;;;;;;;350.38;148.55;;;;;;;;;;1041445;28;20017;-74
2023/01/18 00:57:37;;;;;;;328.40;144.77;;;;;;;;;;1041663;28;20513;-74
2023/01/18 00:58:08;;;;;;;337.13;147.50;;;;;;;;;;1040696;28;20025;-74
2023/01/18 00:58:39;;;;;;;339.02;148.52;;;;;;;;;;1041911;28;20085;-74
2023/01/18 00:59:09;;;;;;;341.10;144.13;;;;;;;;;;1041457;28;20025;-74
2023/01/18 00:59:40;;;;;;;311.33;144.02;;;;;;;;;;1042844;28;20021;-74
2023/01/18 01:00:14;;;;;;;323.75;150.45;;;;;;;;;;1037803;28;20021;-74
2023/01/18 01:00:44;;;;;;;305.60;143.50;;;;;;;;;;1034555;28;20033;-74
2023/01/18 01:01:15;;;;;;;349.88;153.18;;;;;;;;;;1037516;28;20394;-74
2023/01/18 01:01:45;;;;;;;348.60;153.45;;;;;;;;;;1037856;28;20095;-74
2023/01/18 01:02:16;;;;;;;323.77;148.35;;;;;;;;;;1038988;28;20013;-74
2023/01/18 01:02:46;;;;;;;338.67;143.50;;;;;;;;;;1042377;28;20441;-74
2023/01/18 01:03:17;;;;;;;319.58;157.40;;;;;;;;;;1042281;28;20115;-74
2023/01/18 01:07:05;;;;;;;313.80;135.10;;;;;;;;;;1041706;28;20462;-74
2023/01/18 01:07:36;;;;;;;319.73;140.95;;;;;;;;;;1042003;28;20052;-74
2023/01/18 01:08:07;;;;;;;299.30;138.65;;;;;;;;;;1041696;28;20030;-74
2023/01/18 01:08:37;;;;;;;301.83;135.30;;;;;;;;;;1041529;28;20431;-74
2023/01/18 01:09:08;;;;;;;304.92;136.52;;;;;;;;;;1041943;28;20016;-74
2023/01/18 01:09:38;;;;;;;321.30;136.65;;;;;;;;;;1041761;28;20465;-74
2023/01/18 01:10:09;;;;;;;287.65;133.77;;;;;;;;;;1041972;28;20017;-73
2023/01/18 01:10:39;;;;;;;288.10;127.75;;;;;;;;;;1042168;28;20080;-73
2023/01/18 01:11:11;;;;;;;271.40;127.50;;;;;;;;;;1037760;28;20033;-74
2023/01/18 01:12:31;;;;;;;260.05;126.18;;;;;;;;;;1042024;28;20028;-74
2023/01/18 01:26:28;;;;;;;236.18;101.03;;;;;;;;;;1029466;28;20544;-74
2023/01/18 01:26:58;;;;;;;234.75;105.53;;;;;;;;;;1029347;28;20018;-74
2023/01/18 01:27:29;;;;;;;226.35;100.00;;;;;;;;;;1030971;28;20037;-74
2023/01/18 01:27:59;;;;;;;231.73;100.45;;;;;;;;;;1026036;28;20546;-74
2023/01/18 01:28:30;;;;;;;208.20;98.35;;;;;;;;;;1022161;29;20034;-74
2023/01/18 01:29:00;;;;;;;210.13;105.35;;;;;;;;;;1023358;29;20276;-74
2023/01/18 01:29:31;;;;;;;220.05;100.32;;;;;;;;;;1023286;28;20041;-74
2023/01/18 01:30:03;;;;;;;225.20;99.90;;;;;;;;;;1027217;28;20089;-74
2023/01/18 01:30:33;;;;;;;221.10;101.00;;;;;;;;;;1031243;28;20501;-74
2023/01/18 01:31:05;;;;;;;223.75;97.85;;;;;;;;;;1026352;28;20030;-74
2023/01/18 01:31:35;;;;;;;228.70;101.25;;;;;;;;;;1023017;29;20054;-74
2023/01/18 01:32:06;;;;;;;236.88;99.07;;;;;;;;;;1022679;29;20030;-74
2023/01/18 01:32:36;;;;;;;206.52;94.90;;;;;;;;;;1022719;28;20121;-74
2023/01/18 01:33:07;;;;;;;202.95;96.57;;;;;;;;;;1027322;28;20109;-74
2023/01/18 01:33:38;;;;;;;213.05;100.03;;;;;;;;;;1026854;28;20102;-74
2023/01/18 01:34:08;;;;;;;199.55;96.72;;;;;;;;;;1026319;28;20122;-74
2023/01/18 01:34:39;;;;;;;196.98;93.57;;;;;;;;;;1026548;28;20030;-74
2023/01/18 01:35:10;;;;;;;208.93;94.70;;;;;;;;;;1026086;28;20101;-74
2023/01/18 01:35:41;;;;;;;184.30;93.95;;;;;;;;;;1029928;28;20525;-74
2023/01/18 01:36:12;;;;;;;187.85;94.82;;;;;;;;;;1024986;28;20117;-74
2023/01/18 01:36:43;;;;;;;199.13;96.63;;;;;;;;;;1024443;28;20130;-74
2023/01/18 01:37:13;;;;;;;220.57;100.57;;;;;;;;;;1025815;28;20027;-74
2023/01/18 01:37:44;;;;;;;205.60;95.50;;;;;;;;;;1025951;28;20141;-74
2023/01/18 01:38:14;;;;;;;217.68;98.00;;;;;;;;;;1025988;28;20031;-74
2023/01/18 01:38:45;;;;;;;198.80;93.80;;;;;;;;;;1026196;28;20038;-73
2023/01/18 01:39:16;;;;;;;193.00;92.20;;;;;;;;;;1026125;28;20035;-74
2023/01/18 01:39:46;;;;;;;192.10;92.72;;;;;;;;;;1026124;28;20507;-74
2023/01/18 01:40:17;;;;;;;199.52;95.97;;;;;;;;;;1025052;28;20055;-74
2023/01/18 01:40:56;;;;;;;208.75;94.43;;;;;;;;;;1024631;28;20101;-74
2023/01/18 01:41:28;;;;;;;224.15;99.70;;;;;;;;;;1021654;28;20027;-74
2023/01/18 01:41:58;;;;;;;211.07;97.25;;;;;;;;;;1023578;28;20035;-74
2023/01/18 01:42:29;;;;;;;217.15;94.88;;;;;;;;;;1022870;29;20024;-74
2023/01/18 01:42:59;;;;;;;212.25;93.93;;;;;;;;;;1023169;28;20028;-74
2023/01/18 01:43:36;;;;;;;202.68;87.55;;;;;;;;;;1022547;28;20114;-74
2023/01/18 01:44:27;;;;;;;186.10;97.72;;;;;;;;;;1026425;28;20057;-74
2023/01/18 01:44:57;;;;;;;216.00;93.53;;;;;;;;;;1039195;28;20036;-74
2023/01/18 01:45:29;;;;;;;217.15;100.47;;;;;;;;;;1040704;28;20025;-74
2023/01/18 01:45:59;;;;;;;209.35;105.78;;;;;;;;;;1042402;28;20021;-74
2023/01/18 01:46:37;;;;;;;224.27;99.60;;;;;;;;;;1040490;28;20025;-74
2023/01/18 01:47:24;;;;;;;218.90;104.85;;;;;;;;;;1039256;28;20024;-74
2023/01/18 01:47:56;;;;;;;228.07;105.15;;;;;;;;;;1037852;28;20512;-74
2023/01/18 01:48:26;;;;;;;248.25;107.75;;;;;;;;;;1037144;28;20025;-74
2023/01/18 01:49:17;;;;;;;232.88;105.93;;;;;;;;;;1037849;28;20040;-74
2023/01/18 01:49:51;;;;;;;262.48;120.70;;;;;;;;;;1039470;28;20051;-74
2023/01/18 01:50:33;;;;;;;243.18;111.80;;;;;;;;;;1042231;28;20039;-74
2023/01/18 01:51:04;;;;;;;258.90;109.68;;;;;;;;;;1039948;28;20025;-74
2023/01/18 01:51:36;;;;;;;248.57;119.22;;;;;;;;;;1039596;28;20017;-73
2023/01/18 01:52:08;;;;;;;241.00;111.10;;;;;;;;;;1041580;28;20032;-74
2023/01/18 01:52:40;;;;;;;261.67;118.60;;;;;;;;;;1041041;28;20021;-74
2023/01/18 01:53:11;;;;;;;258.75;117.22;;;;;;;;;;1040485;28;20100;-73
2023/01/18 01:53:41;;;;;;;287.63;126.32;;;;;;;;;;1041983;28;20021;-74
2023/01/18 01:54:35;;;;;;;260.30;121.68;;;;;;;;;;1042092;28;20436;-74
2023/01/18 01:55:05;;;;;;;256.30;122.53;;;;;;;;;;1033095;28;20046;-74
2023/01/18 01:55:36;;;;;;;281.45;125.90;;;;;;;;;;1039041;28;20030;-74
2023/01/18 01:56:08;;;;;;;280.70;126.07;;;;;;;;;;1041573;28;20017;-74
2023/01/18 01:56:39;;;;;;;249.85;114.07;;;;;;;;;;1038275;28;20499;-74
2023/01/18 01:57:20;;;;;;;266.25;124.10;;;;;;;;;;1041103;28;20072;-74
2023/01/18 01:57:57;;;;;;;280.17;128.63;;;;;;;;;;1040930;28;20017;-74
2023/01/18 01:58:28;;;;;;;270.65;125.95;;;;;;;;;;1040311;28;20056;-74
2023/01/18 01:58:59;;;;;;;298.35;135.40;;;;;;;;;;1040715;28;20119;-74
2023/01/18 01:59:34;;;;;;;350.25;158.48;;;;;;;;;;1041108;28;20028;-74
2023/01/18 02:00:10;;;;;;;347.48;160.68;;;;;;;;;;1041617;28;20021;-74
2023/01/18 02:00:41;;;;;;;357.42;159.65;;;;;;;;;;1043347;28;20092;-74
2023/01/18 02:01:12;;;;;;;371.00;160.32;;;;;;;;;;1036995;28;20401;-74
2023/01/18 02:01:43;;;;;;;383.45;166.82;;;;;;;;;;1041065;28;20574;-74
2023/01/18 02:02:13;;;;;;;361.33;160.25;;;;;;;;;;1042040;28;20036;-74
2023/01/18 02:02:45;;;;;;;359.40;163.25;;;;;;;;;;1041980;28;20116;-74
2023/01/18 02:03:19;;;;;;;353.70;155.77;;;;;;;;;;1042600;28;20498;-74
2023/01/18 02:03:50;;;;;;;357.17;159.13;;;;;;;;;;1041775;28;20028;-74
2023/01/18 02:04:20;;;;;;;384.00;166.48;;;;;;;;;;1041945;28;20048;-74
2023/01/18 02:04:54;;;;;;;349.15;155.25;;;;;;;;;;1042421;28;20024;-74
2023/01/18 02:05:25;;;;;;;354.00;158.48;;;;;;;;;;1042393;28;20438;-74
2023/01/18 02:06:02;;;;;;;354.35;156.82;;;;;;;;;;1041858;28;20091;-74
2023/01/18 02:06:35;;;;;;;372.15;160.90;;;;;;;;;;1040863;28;20017;-74
2023/01/18 02:07:05;;;;;;;332.70;150.68;;;;;;;;;;1041962;28;20071;-74
2023/01/18 02:07:36;;;;;;;373.63;167.35;;;;;;;;;;1037738;28;20017;-74
2023/01/18 02:08:10;;;;;;;358.45;159.13;;;;;;;;;;1041044;28;20028;-74
2023/01/18 02:08:42;;;;;;;357.92;158.15;;;;;;;;;;1040915;28;20057;-74
2023/01/18 02:09:14;;;;;;;355.85;155.35;;;;;;;;;;1037706;28;20025;-74
2023/01/18 02:09:45;;;;;;;351.25;155.63;;;;;;;;;;1040145;28;20029;-74
2023/01/18 02:10:16;;;;;;;349.58;159.30;;;;;;;;;;1041683;28;20029;-74
2023/01/18 02:10:47;;;;;;;348.45;159.18;;;;;;;;;;1037743;28;20109;-74
2023/01/18 02:11:17;;;;;;;341.20;143.80;;;;;;;;;;1037228;28;20116;-74
2023/01/18 02:11:50;;;;;;;333.77;153.65;;;;;;;;;;1037745;28;20116;-74
2023/01/18 02:12:21;;;;;;;338.58;152.80;;;;;;;;;;1037537;28;20075;-74
2023/01/18 02:12:53;;;;;;;327.02;144.82;;;;;;;;;;1037525;28;20481;-74
2023/01/18 02:13:24;;;;;;;346.50;153.73;;;;;;;;;;1036779;28;20026;-74
2023/01/18 02:13:56;;;;;;;341.67;150.85;;;;;;;;;;1034194;28;20109;-74
2023/01/18 02:14:27;;;;;;;315.60;138.30;;;;;;;;;;1029620;28;20023;-74
2023/01/18 02:14:58;;;;;;;316.17;141.68;;;;;;;;;;1035753;28;20034;-74
2023/01/18 02:15:49;;;;;;;321.15;135.02;;;;;;;;;;1033695;28;20026;-74
2023/01/18 02:16:37;;;;;;;284.33;126.15;;;;;;;;;;1020381;28;20130;-74
2023/01/18 02:17:08;;;;;;;290.65;134.82;;;;;;;;;;1041545;28;20431;-74
2023/01/18 02:17:41;;;;;;;303.05;135.95;;;;;;;;;;1041203;28;20079;-74
2023/01/18 02:18:28;;;;;;;308.65;142.13;;;;;;;;;;1037847;28;20030;-74
2023/01/18 02:19:16;;;;;;;339.73;151.65;;;;;;;;;;1032494;28;20077;-74
2023/01/18 02:20:18;;;;;;;323.42;151.75;;;;;;;;;;1037101;28;20647;-74
2023/01/18 02:20:57;;;;;;;347.20;150.68;;;;;;;;;;1021016;28;20023;-74
2023/01/18 02:21:44;;;;;;;345.13;150.10;;;;;;;;;;1040191;28;20041;-75
2023/01/18 02:22:15;;;;;;;317.38;144.23;;;;;;;;;;1039749;28;20048;-74
2023/01/18 02:23:06;;;;;;;303.02;142.45;;;;;;;;;;1040434;28;20587;-75
2023/01/18 02:23:54;;;;;;;298.10;130.18;;;;;;;;;;1041429;28;20018;-76
2023/01/18 02:24:43;;;;;;;299.88;137.07;;;;;;;;;;1037543;28;20084;-77
2023/01/18 02:25:17;;;;;;;298.85;135.63;;;;;;;;;;1039533;28;20068;-74
2023/01/18 02:25:57;;;;;;;311.73;139.95;;;;;;;;;;1039791;28;20075;-74
2023/01/18 02:26:49;;;;;;;285.05;137.02;;;;;;;;;;1039372;28;20029;-74
2023/01/18 02:27:42;;;;;;;268.70;125.70;;;;;;;;;;1039677;28;20031;-74
2023/01/18 02:28:17;;;;;;;301.95;135.65;;;;;;;;;;1037716;28;20390;-74
2023/01/18 02:29:13;;;;;;;290.40;134.35;;;;;;;;;;1038094;28;20417;-74
2023/01/18 02:30:03;;;;;;;282.10;130.23;;;;;;;;;;1037034;28;20097;-74
2023/01/18 02:30:52;;;;;;;266.40;124.65;;;;;;;;;;1040346;28;20112;-74
2023/01/18 02:31:25;;;;;;;288.48;128.95;;;;;;;;;;1038869;28;20037;-74
2023/01/18 02:32:19;;;;;;;292.55;128.68;;;;;;;;;;1037599;28;20031;-74
2023/01/18 02:32:54;;;;;;;285.92;126.57;;;;;;;;;;1035333;28;20018;-74
2023/01/18 02:33:33;;;;;;;290.15;133.68;;;;;;;;;;1041601;28;20033;-74
2023/01/18 02:34:06;;;;;;;295.20;133.38;;;;;;;;;;1044034;28;20028;-74
2023/01/18 02:34:51;;;;;;;284.58;130.85;;;;;;;;;;1042055;28;20025;-75
2023/01/18 02:35:35;;;;;;;318.23;135.82;;;;;;;;;;1036255;28;20490;-76
2023/01/18 02:36:05;;;;;;;299.17;130.77;;;;;;;;;;1040019;28;20021;-76
2023/01/18 02:36:41;;;;;;;292.10;134.00;;;;;;;;;;1041908;28;20186;-77
2023/01/18 02:37:12;;;;;;;298.80;132.85;;;;;;;;;;1035679;28;20455;-74
2023/01/18 02:38:01;;;;;;;300.27;138.10;;;;;;;;;;1035815;28;20029;-74
2023/01/18 02:38:38;;;;;;;289.73;130.68;;;;;;;;;;1041366;28;20063;-74
2023/01/18 02:39:22;;;;;;;274.60;132.40;;;;;;;;;;1038547;28;20138;-74
2023/01/18 02:40:03;;;;;;;348.83;151.95;;;;;;;;;;1038370;28;20107;-75
2023/01/18 02:40:37;;;;;;;352.80;151.48;;;;;;;;;;1041348;28;20404;-74
2023/01/18 02:46:29;;;;;;;326.27;145.18;;;;;;;;;;1041370;28;20009;-75
2023/01/18 02:46:35;;;;;;;271.77;122.75;;;;;;;;;;1038216;28;20437;-74
2023/01/18 02:47:06;;;;;;;309.98;142.80;;;;;;;;;;1037887;28;20112;-74
2023/01/18 02:47:37;;;;;;;323.10;140.73;;;;;;;;;;1042064;28;20070;-74
2023/01/18 02:48:08;;;;;;;314.02;143.45;;;;;;;;;;1040863;28;20021;-75
2023/01/18 02:48:40;;;;;;;321.35;140.95;;;;;;;;;;1041998;28;20116;-75
2023/01/18 02:49:17;;;;;;;322.30;143.68;;;;;;;;;;1043813;28;20401;-74
2023/01/18 02:49:47;;;;;;;284.48;133.95;;;;;;;;;;1040034;28;20025;-75
2023/01/18 02:50:22;;;;;;;294.95;131.70;;;;;;;;;;1041984;28;20064;-74
2023/01/18 02:50:53;;;;;;;307.95;133.85;;;;;;;;;;1042204;28;20032;-74
2023/01/18 02:51:24;;;;;;;314.55;143.40;;;;;;;;;;1037851;28;20060;-74
2023/01/18 02:52:04;;;;;;;311.42;149.77;;;;;;;;;;1037894;28;20031;-74
2023/01/18 02:52:35;;;;;;;298.10;133.13;;;;;;;;;;1034931;28;20025;-76
2023/01/18 02:53:05;;;;;;;307.08;136.63;;;;;;;;;;1033663;28;20029;-77
2023/01/18 02:53:37;;;;;;;293.60;135.18;;;;;;;;;;1036859;28;21007;-76
2023/01/18 02:54:09;;;;;;;278.20;126.22;;;;;;;;;;1038995;28;20022;-77
2023/01/18 02:54:39;;;;;;;279.83;128.40;;;;;;;;;;1036282;28;20017;-76
2023/01/18 02:55:28;;;;;;;283.73;132.30;;;;;;;;;;1034885;28;20022;-75
2023/01/18 02:56:18;;;;;;;255.02;124.50;;;;;;;;;;1034348;28;20017;-75
2023/01/18 02:56:51;;;;;;;308.63;140.95;;;;;;;;;;1036163;28;20030;-75
2023/01/18 02:57:22;;;;;;;304.70;140.10;;;;;;;;;;1038768;28;20037;-76
2023/01/18 02:57:58;;;;;;;321.48;147.43;;;;;;;;;;1039797;28;20028;-76
2023/01/18 02:58:32;;;;;;;322.80;137.90;;;;;;;;;;1038423;28;20033;-75
2023/01/18 02:59:03;;;;;;;296.02;137.25;;;;;;;;;;1041068;28;20029;-74
2023/01/18 02:59:37;;;;;;;306.00;142.10;;;;;;;;;;1036278;28;20025;-74
2023/01/18 03:00:10;;;;;;;295.63;136.20;;;;;;;;;;1030661;28;20026;-75
2023/01/18 03:00:46;;;;;;;290.13;139.40;;;;;;;;;;1037835;28;20060;-76
2023/01/18 03:01:25;;;;;;;286.58;134.45;;;;;;;;;;1030179;28;20030;-75
2023/01/18 03:02:04;;;;;;;288.55;142.82;;;;;;;;;;1034340;28;20018;-76
2023/01/18 03:02:36;;;;;;;305.98;139.95;;;;;;;;;;1035264;28;20441;-75
2023/01/18 03:03:09;;;;;;;309.95;139.77;;;;;;;;;;1034382;28;20032;-75
2023/01/18 03:03:42;;;;;;;309.38;145.20;;;;;;;;;;1036159;28;20513;-75
2023/01/18 03:04:30;;;;;;;314.25;139.65;;;;;;;;;;1033733;28;20022;-75
2023/01/18 03:05:02;;;;;;;315.05;144.20;;;;;;;;;;1039484;28;20079;-75
2023/01/18 03:05:34;;;;;;;306.92;144.98;;;;;;;;;;1041444;28;20059;-75
2023/01/18 03:06:06;;;;;;;315.17;137.77;;;;;;;;;;1040752;28;20017;-75
2023/01/18 03:06:39;;;;;;;295.58;144.13;;;;;;;;;;1037837;28;20048;-75
2023/01/18 03:07:16;;;;;;;300.02;136.43;;;;;;;;;;1039344;28;20389;-75
2023/01/18 03:07:57;;;;;;;301.27;141.35;;;;;;;;;;1038575;28;20329;-75
2023/01/18 03:08:33;;;;;;;414.80;169.10;;;;;;;;;;1039676;28;20064;-75
2023/01/18 03:09:04;;;;;;;362.88;155.35;;;;;;;;;;1039312;28;20437;-75
2023/01/18 03:09:34;;;;;;;383.80;166.23;;;;;;;;;;1037181;28;20588;-75
2023/01/18 03:10:07;;;;;;;315.20;141.23;;;;;;;;;;1039366;28;20036;-76
2023/01/18 03:10:43;;;;;;;332.38;145.23;;;;;;;;;;1037444;28;20168;-76
2023/01/18 03:11:40;;;;;;;347.20;153.63;;;;;;;;;;1038967;28;20029;-76
2023/01/18 03:12:16;;;;;;;332.88;154.65;;;;;;;;;;1032041;28;20033;-76
2023/01/18 03:12:47;;;;;;;359.83;156.00;;;;;;;;;;1037096;28;20124;-75
2023/01/18 03:13:24;;;;;;;334.02;149.18;;;;;;;;;;1036602;28;20558;-75
2023/01/18 03:14:10;;;;;;;345.55;149.70;;;;;;;;;;1036832;28;20028;-75
2023/01/18 03:15:00;;;;;;;363.40;163.43;;;;;;;;;;1035689;28;20048;-76
2023/01/18 03:15:54;;;;;;;388.90;172.82;;;;;;;;;;1038464;28;20025;-76
2023/01/18 03:16:26;;;;;;;370.15;166.77;;;;;;;;;;1027580;28;20545;-76
2023/01/18 03:17:02;;;;;;;415.95;180.80;;;;;;;;;;1034853;28;20029;-75
2023/01/18 03:17:35;;;;;;;406.98;179.88;;;;;;;;;;1031837;28;20128;-75
2023/01/18 03:18:26;;;;;;;405.52;184.15;;;;;;;;;;1033896;28;20034;-75
2023/01/18 03:19:01;;;;;;;425.65;193.00;;;;;;;;;;1024728;28;20035;-75
2023/01/18 03:20:36;;;;;;;399.67;180.82;;;;;;;;;;1033379;28;20021;-76
2023/01/18 03:21:07;;;;;;;411.42;184.15;;;;;;;;;;1034128;28;20030;-75
2023/01/18 03:21:37;;;;;;;406.08;184.00;;;;;;;;;;1035856;28;20025;-76
2023/01/18 03:22:09;;;;;;;400.08;184.88;;;;;;;;;;1035732;28;20253;-75
2023/01/18 03:23:41;;;;;;;385.23;172.63;;;;;;;;;;1035939;28;20411;-75
2023/01/18 03:24:13;;;;;;;390.30;188.60;;;;;;;;;;1037548;28;20057;-76
2023/01/18 03:24:44;;;;;;;398.85;181.63;;;;;;;;;;1038275;28;20021;-75
2023/01/18 03:25:17;;;;;;;403.75;181.98;;;;;;;;;;1041282;28;20025;-75
2023/01/18 03:25:49;;;;;;;399.23;190.88;;;;;;;;;;1041047;28;20075;-75
2023/01/18 03:26:20;;;;;;;423.15;192.70;;;;;;;;;;1041383;28;20025;-75
2023/01/18 03:26:52;;;;;;;438.55;197.82;;;;;;;;;;1040891;28;20028;-75
2023/01/18 03:33:45;;;;;;;376.38;175.77;;;;;;;;;;1038668;28;20473;-75
2023/01/18 03:34:21;;;;;;;374.85;180.52;;;;;;;;;;1037034;28;20478;-75
2023/01/18 03:35:06;;;;;;;377.25;174.50;;;;;;;;;;1038983;28;20021;-75
2023/01/18 03:35:38;;;;;;;383.02;173.65;;;;;;;;;;1035428;28;20073;-75
2023/01/18 03:36:10;;;;;;;402.20;176.48;;;;;;;;;;1035723;28;20044;-75
2023/01/18 03:36:42;;;;;;;407.20;182.68;;;;;;;;;;1030172;28;20088;-75
2023/01/18 03:37:17;;;;;;;400.00;187.52;;;;;;;;;;1030005;28;20027;-75
2023/01/18 03:37:48;;;;;;;402.08;184.82;;;;;;;;;;1034738;28;20021;-75
2023/01/18 03:38:19;;;;;;;394.10;179.50;;;;;;;;;;1036366;28;20120;-75
2023/01/18 03:38:54;;;;;;;380.67;181.73;;;;;;;;;;1039049;28;20032;-75
2023/01/18 03:39:27;;;;;;;396.38;186.60;;;;;;;;;;1036932;28;20021;-76
2023/01/18 03:40:01;;;;;;;405.85;181.88;;;;;;;;;;1037455;28;20113;-75
2023/01/18 03:40:32;;;;;;;392.30;186.80;;;;;;;;;;1033819;28;20370;-76
2023/01/18 03:41:02;;;;;;;393.50;184.93;;;;;;;;;;1038505;28;20036;-76
2023/01/18 03:41:35;;;;;;;410.55;186.45;;;;;;;;;;1041469;28;20108;-76
2023/01/18 03:42:12;;;;;;;410.48;193.68;;;;;;;;;;1043054;28;20369;-75
2023/01/18 03:42:48;;;;;;;418.15;189.05;;;;;;;;;;1042608;28;20083;-75
2023/01/18 03:43:21;;;;;;;385.25;179.00;;;;;;;;;;1040570;28;20085;-75